Time;durP1;ratioP1;P1;durP2;ratioP2;P2;SDS_P1;SDS_P2;PMS_P1;PMS_P2;Temp;Humidity;BMP_temperature;BMP_pressure;BME280_temperature;BME280_humidity;BME280_pressure;Samples;Min_cycle;Max_cycle;Signal;HPM_P1;HPM_P2
2021/10/31 00:01:08;;;;;;;8.27;5.68;;;16.90;92.40;;;;;;4223606;27;20120;-60
2021/10/31 00:03:30;;;;;;;8.27;5.70;;;17.00;92.40;;;;;;4221501;27;20052;-61
2021/10/31 00:05:52;;;;;;;5.50;4.55;;;17.00;92.40;;;;;;4228121;27;20050;-60
2021/10/31 00:08:16;;;;;;;8.32;5.70;;;17.00;92.40;;;;;;4222550;27;20047;-60
2021/10/31 00:10:38;;;;;;;7.03;5.35;;;16.90;92.40;;;;;;4225504;27;20522;-59
2021/10/31 00:13:00;;;;;;;6.20;5.63;;;17.00;92.50;;;;;;4224360;27;20055;-60
2021/10/31 00:15:22;;;;;;;8.65;5.90;;;16.90;92.50;;;;;;4223675;27;20508;-60
2021/10/31 00:17:44;;;;;;;12.25;6.32;;;16.90;92.50;;;;;;4226706;27;20802;-60
2021/10/31 00:20:08;;;;;;;6.57;6.03;;;16.90;92.40;;;;;;4225078;27;20044;-60
2021/10/31 00:22:30;;;;;;;9.18;5.50;;;16.90;92.50;;;;;;4224140;27;20075;-60
2021/10/31 00:24:53;;;;;;;7.30;5.78;;;16.90;92.40;;;;;;4223094;27;20059;-61
2021/10/31 00:27:15;;;;;;;7.88;6.82;;;16.90;92.40;;;;;;4226300;27;20062;-61
2021/10/31 00:29:37;;;;;;;8.93;6.82;;;16.90;92.40;;;;;;4224830;27;20537;-61
2021/10/31 00:31:59;;;;;;;6.32;5.65;;;16.90;92.50;;;;;;4224312;27;20035;-61
2021/10/31 00:34:22;;;;;;;6.93;6.22;;;16.90;92.50;;;;;;4223217;27;20055;-61
2021/10/31 00:36:44;;;;;;;8.15;6.68;;;16.90;92.40;;;;;;4224307;28;20089;-60
2021/10/31 00:39:06;;;;;;;8.52;6.65;;;16.90;92.40;;;;;;4225721;27;20056;-60
2021/10/31 00:41:29;;;;;;;9.02;6.63;;;16.90;92.40;;;;;;4223927;27;20054;-61
2021/10/31 00:43:51;;;;;;;9.35;6.50;;;16.90;92.30;;;;;;4209740;28;21033;-60
2021/10/31 00:46:13;;;;;;;10.40;7.20;;;16.90;92.60;;;;;;4210399;28;20126;-61
2021/10/31 00:48:35;;;;;;;8.82;7.38;;;16.90;92.40;;;;;;4224457;27;20070;-61
2021/10/31 00:50:57;;;;;;;8.85;7.65;;;16.90;92.30;;;;;;4226987;27;20104;-61
2021/10/31 00:53:20;;;;;;;8.40;7.60;;;16.90;92.30;;;;;;4226709;27;20055;-61
2021/10/31 00:55:43;;;;;;;8.40;7.22;;;16.90;92.30;;;;;;4227089;27;22181;-61
2021/10/31 00:58:08;;;;;;;9.88;7.95;;;16.80;92.20;;;;;;4226653;27;20100;-61
2021/10/31 01:00:30;;;;;;;10.80;8.00;;;16.90;92.20;;;;;;4226937;27;20055;-61
2021/10/31 01:02:52;;;;;;;9.13;7.22;;;16.90;92.20;;;;;;4226793;27;20051;-61
2021/10/31 01:05:18;;;;;;;11.80;8.27;;;16.80;92.60;;;;;;4226792;27;20058;-61
2021/10/31 01:07:57;;;;;;;8.43;7.53;;;16.90;92.30;;;;;;4226512;27;20040;-61
2021/10/31 01:10:28;;;;;;;7.95;6.93;;;16.90;92.10;;;;;;4226229;27;20044;-61
2021/10/31 01:13:05;;;;;;;10.70;7.55;;;16.80;92.20;;;;;;4226304;27;20096;-60
2021/10/31 01:15:37;;;;;;;11.38;8.65;;;16.80;92.30;;;;;;4226202;27;20056;-63
2021/10/31 01:18:18;;;;;;;10.43;9.32;;;16.80;92.40;;;;;;4209140;28;20050;-62
2021/10/31 01:20:52;;;;;;;11.77;9.10;;;16.80;92.40;;;;;;4208914;28;20040;-62
2021/10/31 01:23:28;;;;;;;11.02;9.30;;;16.80;92.40;;;;;;4226040;28;20082;-62
2021/10/31 01:26:08;;;;;;;12.77;9.23;;;16.70;92.50;;;;;;4226260;27;20056;-61
2021/10/31 01:28:42;;;;;;;11.55;8.82;;;16.80;92.50;;;;;;4225974;27;20047;-61
2021/10/31 01:31:14;;;;;;;13.35;10.38;;;16.80;92.50;;;;;;4226072;27;20075;-61
2021/10/31 01:33:39;;;;;;;;;;;16.80;92.50;;;;;;4226477;27;20056;-61
2021/10/31 01:36:07;;;;;;;11.50;9.07;;;16.80;92.60;;;;;;4225968;27;19924;-60
2021/10/31 01:38:37;;;;;;;12.38;10.70;;;16.80;92.60;;;;;;4226254;27;20043;-61
2021/10/31 01:41:07;;;;;;;10.60;9.50;;;16.70;92.60;;;;;;4226054;27;20051;-60
2021/10/31 01:43:35;;;;;;;10.90;9.77;;;16.80;92.50;;;;;;4225914;27;20409;-60
2021/10/31 01:46:07;;;;;;;10.35;9.10;;;16.70;92.50;;;;;;4226373;27;20050;-60
2021/10/31 01:48:38;;;;;;;12.52;10.52;;;16.70;92.40;;;;;;4225398;27;20079;-60
2021/10/31 01:51:01;;;;;;;;;;;16.70;92.40;;;;;;4226118;27;20047;-60
2021/10/31 01:53:30;;;;;;;11.20;9.38;;;16.70;92.60;;;;;;4226049;27;19942;-60
2021/10/31 01:55:58;;;;;;;11.48;10.25;;;16.70;92.70;;;;;;4225310;27;20062;-59
2021/10/31 01:58:23;;;;;;;11.88;9.48;;;16.70;92.70;;;;;;4225486;27;20036;-61
2021/10/31 02:00:47;;;;;;;11.68;10.48;;;16.70;92.70;;;;;;4226010;27;20067;-61
2021/10/31 02:03:13;;;;;;;11.88;9.13;;;16.70;92.60;;;;;;4225706;27;20055;-59
2021/10/31 02:05:38;;;;;;;10.85;9.73;;;16.70;92.60;;;;;;4226050;27;20067;-60
2021/10/31 02:08:04;;;;;;;11.20;9.63;;;16.70;92.60;;;;;;4225756;27;20065;-60
2021/10/31 02:10:27;;;;;;;11.60;10.40;;;16.70;92.60;;;;;;4225435;28;20447;-61
2021/10/31 02:12:51;;;;;;;11.38;10.05;;;16.70;92.60;;;;;;4225761;28;20147;-60
2021/10/31 02:15:14;;;;;;;12.25;10.70;;;16.70;92.60;;;;;;4225539;27;20051;-62
2021/10/31 02:17:37;;;;;;;13.00;9.90;;;16.70;92.60;;;;;;4225358;27;20044;-61
2021/10/31 02:19:59;;;;;;;17.42;11.13;;;16.70;92.50;;;;;;4225475;27;20887;-61
2021/10/31 02:22:27;;;;;;;12.10;10.80;;;16.70;92.50;;;;;;4224629;27;20039;-62
2021/10/31 02:24:51;;;;;;;10.88;9.73;;;16.70;92.40;;;;;;4209975;27;21629;-62
2021/10/31 02:27:15;;;;;;;12.18;10.65;;;16.70;92.60;;;;;;4208610;27;20519;-61
2021/10/31 02:29:45;;;;;;;11.90;10.73;;;16.70;92.60;;;;;;4207887;28;20044;-62
2021/10/31 02:32:08;;;;;;;12.95;10.43;;;16.70;92.50;;;;;;4206673;28;20047;-61
2021/10/31 02:34:30;;;;;;;12.90;10.93;;;16.70;92.70;;;;;;4207540;28;20048;-62
2021/10/31 02:36:52;;;;;;;11.32;10.15;;;16.60;92.60;;;;;;4207885;28;20051;-61
2021/10/31 02:39:14;;;;;;;13.45;11.38;;;16.60;92.60;;;;;;4207770;28;20044;-62
2021/10/31 02:41:37;;;;;;;13.00;11.02;;;16.60;92.60;;;;;;4207710;28;20127;-62
2021/10/31 02:43:59;;;;;;;13.73;11.60;;;16.70;92.50;;;;;;4208315;28;20055;-62
2021/10/31 02:46:23;;;;;;;11.82;10.38;;;16.70;92.60;;;;;;4191392;28;20542;-61
2021/10/31 02:48:45;;;;;;;11.50;10.40;;;16.70;92.50;;;;;;4191402;28;20052;-63
2021/10/31 02:51:15;;;;;;;13.05;11.65;;;16.70;92.60;;;;;;4192941;28;20457;-61
2021/10/31 02:53:43;;;;;;;12.47;11.17;;;16.60;92.40;;;;;;4207753;28;20052;-61
2021/10/31 02:56:14;;;;;;;11.48;10.48;;;16.60;92.50;;;;;;4207356;28;20155;-61
2021/10/31 02:58:43;;;;;;;12.70;11.40;;;16.60;92.50;;;;;;4224170;27;20054;-62
2021/10/31 03:01:07;;;;;;;12.10;10.68;;;16.60;92.40;;;;;;4224787;27;20579;-61
2021/10/31 03:03:31;;;;;;;10.15;9.20;;;16.60;92.50;;;;;;4224911;27;20047;-62
2021/10/31 03:05:53;;;;;;;14.57;11.43;;;16.60;92.50;;;;;;4224799;28;20063;-61
2021/10/31 03:08:15;;;;;;;14.27;11.15;;;16.60;92.50;;;;;;4223951;27;20047;-61
2021/10/31 03:10:38;;;;;;;10.55;9.65;;;16.60;92.50;;;;;;4224785;27;20047;-61
2021/10/31 03:13:00;;;;;;;12.60;11.32;;;16.60;92.50;;;;;;4224995;27;20055;-64
2021/10/31 03:15:24;;;;;;;13.38;10.00;;;16.60;92.50;;;;;;4224785;27;20130;-61
2021/10/31 03:17:45;;;;;;;11.75;10.57;;;16.60;92.40;;;;;;4224509;27;20048;-62
2021/10/31 03:20:08;;;;;;;11.40;10.02;;;16.60;92.50;;;;;;4224671;28;20059;-61
2021/10/31 03:22:31;;;;;;;10.55;9.60;;;16.60;92.40;;;;;;4224767;28;20051;-61
2021/10/31 03:24:53;;;;;;;11.55;10.35;;;16.60;92.40;;;;;;4212266;28;20528;-61
2021/10/31 03:27:15;;;;;;;12.60;9.63;;;16.60;92.50;;;;;;4225198;28;20127;-61
2021/10/31 03:29:37;;;;;;;9.90;9.00;;;16.60;92.40;;;;;;4224912;28;20055;-61
2021/10/31 03:32:01;;;;;;;10.75;9.50;;;16.60;92.40;;;;;;4224883;28;20048;-61
2021/10/31 03:34:23;;;;;;;10.95;9.95;;;16.60;92.40;;;;;;4224404;28;20036;-62
2021/10/31 03:36:45;;;;;;;13.57;9.77;;;16.50;92.40;;;;;;4224606;27;20463;-62
2021/10/31 03:39:07;;;;;;;11.40;10.30;;;16.60;92.40;;;;;;4224743;27;20051;-62
2021/10/31 03:41:29;;;;;;;12.00;10.02;;;16.60;92.40;;;;;;4224669;27;20047;-62
2021/10/31 03:43:51;;;;;;;10.70;9.18;;;16.60;92.40;;;;;;4227902;27;20048;-61
2021/10/31 03:46:14;;;;;;;11.38;9.70;;;16.50;92.40;;;;;;4228120;27;20097;-61
2021/10/31 03:48:37;;;;;;;12.50;9.27;;;16.60;92.40;;;;;;4228075;27;20071;-61
2021/10/31 03:51:00;;;;;;;10.27;9.27;;;16.50;92.30;;;;;;4228070;27;20039;-61
2021/10/31 03:53:22;;;;;;;10.85;9.75;;;16.50;92.40;;;;;;4228130;27;20762;-61
2021/10/31 03:55:44;;;;;;;12.65;9.60;;;16.50;92.50;;;;;;4227705;27;20050;-61
2021/10/31 03:58:06;;;;;;;14.10;9.40;;;16.50;92.40;;;;;;4227784;27;20078;-61
2021/10/31 04:00:28;;;;;;;10.73;9.13;;;16.50;92.30;;;;;;4226567;27;20574;-61
2021/10/31 04:02:51;;;;;;;9.75;8.75;;;16.50;92.30;;;;;;4227761;27;20054;-61
2021/10/31 04:05:15;;;;;;;9.65;8.75;;;16.50;92.40;;;;;;4227750;27;20105;-61
2021/10/31 04:07:38;;;;;;;15.68;9.65;;;16.50;92.30;;;;;;4227966;27;20055;-61
2021/10/31 04:10:00;;;;;;;10.98;9.70;;;16.50;92.40;;;;;;4227131;27;20071;-61
2021/10/31 04:12:22;;;;;;;11.20;9.70;;;16.40;92.30;;;;;;4227745;27;20042;-61
2021/10/31 04:14:44;;;;;;;10.15;9.23;;;16.50;92.30;;;;;;4227312;27;20047;-61
2021/10/31 04:17:07;;;;;;;10.50;9.60;;;16.50;92.40;;;;;;4227745;27;20039;-61
2021/10/31 04:19:28;;;;;;;12.48;9.68;;;16.50;92.40;;;;;;4225711;27;20104;-61
2021/10/31 04:21:52;;;;;;;9.93;9.02;;;16.50;92.40;;;;;;4227571;27;20070;-61
2021/10/31 04:24:14;;;;;;;10.23;9.23;;;16.40;92.30;;;;;;4227232;27;20052;-61
2021/10/31 04:26:36;;;;;;;9.98;9.07;;;16.50;92.30;;;;;;4227235;27;20513;-62
2021/10/31 04:28:59;;;;;;;10.25;9.30;;;16.50;92.40;;;;;;4227628;27;20414;-61
2021/10/31 04:31:21;;;;;;;11.02;9.65;;;16.40;92.60;;;;;;4227263;27;20405;-61
2021/10/31 04:33:43;;;;;;;11.27;10.15;;;16.50;92.30;;;;;;4227153;27;20051;-61
2021/10/31 04:36:06;;;;;;;12.38;11.07;;;16.40;92.30;;;;;;4227070;27;20044;-61
2021/10/31 04:38:31;;;;;;;10.35;9.25;;;16.40;92.20;;;;;;4227164;28;20126;-61
2021/10/31 04:40:53;;;;;;;13.27;10.15;;;16.40;92.30;;;;;;4226670;27;20409;-61
2021/10/31 04:43:15;;;;;;;12.32;11.13;;;16.40;92.40;;;;;;4226068;27;20463;-61
2021/10/31 04:45:39;;;;;;;12.85;10.90;;;16.40;92.30;;;;;;4227080;27;20047;-62
2021/10/31 04:48:01;;;;;;;10.85;9.68;;;16.40;92.70;;;;;;4227192;27;20122;-62
2021/10/31 04:50:23;;;;;;;14.10;11.57;;;16.40;92.40;;;;;;4227169;27;20126;-62
2021/10/31 04:52:45;;;;;;;13.25;11.95;;;16.40;92.30;;;;;;4226629;27;20054;-62
2021/10/31 04:55:09;;;;;;;12.40;11.13;;;16.40;92.30;;;;;;4226116;27;20048;-62
2021/10/31 04:57:31;;;;;;;11.95;10.75;;;16.40;92.30;;;;;;4210793;28;20127;-62
2021/10/31 04:59:53;;;;;;;11.98;10.77;;;16.40;92.30;;;;;;4209995;27;20048;-62
2021/10/31 05:02:15;;;;;;;12.85;11.65;;;16.30;92.40;;;;;;4209425;28;20125;-61
2021/10/31 05:04:37;;;;;;;12.20;11.00;;;16.30;92.40;;;;;;4210130;28;20040;-62
2021/10/31 05:07:00;;;;;;;13.25;11.90;;;16.40;92.40;;;;;;4210019;28;20066;-61
2021/10/31 05:09:22;;;;;;;13.45;12.15;;;16.30;92.30;;;;;;4209976;28;20048;-61
2021/10/31 05:11:46;;;;;;;14.60;12.13;;;16.30;92.40;;;;;;4209853;28;20097;-61
2021/10/31 05:14:08;;;;;;;11.27;10.25;;;16.30;92.30;;;;;;4210051;28;20151;-61
2021/10/31 05:16:30;;;;;;;13.73;12.20;;;16.30;92.50;;;;;;4209899;28;20096;-62
2021/10/31 05:18:52;;;;;;;14.73;13.13;;;16.30;92.40;;;;;;4209947;28;20197;-61
2021/10/31 05:21:14;;;;;;;14.13;12.50;;;16.30;92.80;;;;;;4209560;28;20105;-61
2021/10/31 05:23:36;;;;;;;13.75;12.20;;;16.30;92.50;;;;;;4209306;27;20105;-61
2021/10/31 05:26:01;;;;;;;14.43;12.90;;;16.30;92.50;;;;;;4209358;28;20044;-61
2021/10/31 05:28:26;;;;;;;16.95;13.23;;;16.30;92.50;;;;;;4209832;28;20143;-62
2021/10/31 05:30:48;;;;;;;12.43;11.23;;;16.30;92.50;;;;;;4209064;28;20056;-60
2021/10/31 05:33:10;;;;;;;13.77;12.10;;;16.30;92.50;;;;;;4209408;28;20445;-61
2021/10/31 05:35:32;;;;;;;16.77;12.60;;;16.20;92.30;;;;;;4209604;28;20074;-60
2021/10/31 05:37:57;;;;;;;15.25;12.48;;;16.30;92.50;;;;;;4207874;28;20482;-62
2021/10/31 05:40:20;;;;;;;17.40;12.38;;;16.30;92.50;;;;;;4225935;27;20050;-62
2021/10/31 05:42:43;;;;;;;13.88;12.45;;;16.20;92.30;;;;;;4209673;27;20055;-62
2021/10/31 05:45:07;;;;;;;15.27;13.35;;;16.20;92.30;;;;;;4209363;28;20044;-61
2021/10/31 05:47:30;;;;;;;13.68;12.27;;;16.20;92.40;;;;;;4223470;27;20070;-60
2021/10/31 05:49:53;;;;;;;16.77;13.23;;;16.20;92.50;;;;;;4225811;27;20059;-61
2021/10/31 05:52:15;;;;;;;15.05;12.88;;;16.20;92.50;;;;;;4226078;27;20131;-61
2021/10/31 05:54:37;;;;;;;13.45;12.10;;;16.20;92.30;;;;;;4226292;27;20084;-62
2021/10/31 05:57:00;;;;;;;14.73;12.63;;;16.20;92.30;;;;;;4225959;28;20054;-61
2021/10/31 05:59:23;;;;;;;14.50;12.85;;;16.20;92.30;;;;;;4225788;27;20520;-62
2021/10/31 06:01:47;;;;;;;15.15;13.10;;;16.20;92.50;;;;;;4225715;27;20786;-61
2021/10/31 06:04:08;;;;;;;13.70;12.20;;;16.20;92.40;;;;;;4226054;27;20047;-62
2021/10/31 06:06:31;;;;;;;13.55;12.05;;;16.20;92.30;;;;;;4226042;27;22029;-61
2021/10/31 06:08:53;;;;;;;13.05;11.75;;;16.20;92.60;;;;;;4225799;28;20047;-59
2021/10/31 06:11:15;;;;;;;14.10;11.73;;;16.30;92.80;;;;;;4225782;27;20505;-60
2021/10/31 06:13:37;;;;;;;14.27;11.65;;;16.30;92.40;;;;;;4225242;27;20134;-60
2021/10/31 06:15:59;;;;;;;13.95;12.43;;;16.20;92.30;;;;;;4225890;27;20058;-60
2021/10/31 06:18:23;;;;;;;12.98;11.68;;;16.20;92.20;;;;;;4208743;27;20109;-60
2021/10/31 06:20:46;;;;;;;16.13;12.32;;;16.20;92.60;;;;;;4208505;28;20051;-60
2021/10/31 06:23:08;;;;;;;12.93;11.60;;;16.20;92.00;;;;;;4209169;28;20117;-59
2021/10/31 06:25:30;;;;;;;12.65;10.63;;;16.20;92.50;;;;;;4208814;28;20093;-59
2021/10/31 06:27:53;;;;;;;12.60;11.30;;;16.30;92.70;;;;;;4208294;28;20683;-59
2021/10/31 06:30:15;;;;;;;14.50;11.50;;;16.40;92.70;;;;;;4208024;28;20063;-59
2021/10/31 06:32:37;;;;;;;13.13;10.73;;;16.40;92.50;;;;;;4208649;28;20499;-59
2021/10/31 06:35:01;;;;;;;12.05;10.82;;;16.50;92.40;;;;;;4208227;28;20055;-60
2021/10/31 06:37:23;;;;;;;16.70;10.32;;;16.60;92.30;;;;;;4208414;28;20490;-59
2021/10/31 06:39:46;;;;;;;11.82;10.63;;;16.60;92.30;;;;;;4223465;28;20901;-60
2021/10/31 06:42:08;;;;;;;12.63;11.10;;;16.60;92.20;;;;;;4225147;27;20134;-59
2021/10/31 06:44:29;;;;;;;12.13;10.60;;;16.60;92.10;;;;;;4225322;27;20056;-60
2021/10/31 06:46:52;;;;;;;14.13;11.05;;;16.70;92.00;;;;;;4225288;27;20394;-60
2021/10/31 06:49:14;;;;;;;13.35;11.50;;;16.70;92.50;;;;;;4225157;27;20139;-60
2021/10/31 06:51:38;;;;;;;11.13;10.02;;;16.70;92.10;;;;;;4225085;27;20055;-60
2021/10/31 06:54:00;;;;;;;11.85;10.70;;;16.60;92.00;;;;;;4225347;27;20073;-60
2021/10/31 06:56:25;;;;;;;12.32;11.00;;;16.70;92.20;;;;;;4225354;27;20503;-60
2021/10/31 06:58:47;;;;;;;11.98;10.38;;;16.60;92.10;;;;;;4224761;27;20050;-60
2021/10/31 07:01:09;;;;;;;12.77;11.20;;;16.60;91.90;;;;;;4225144;27;20136;-59
2021/10/31 07:03:32;;;;;;;14.25;11.07;;;16.60;91.90;;;;;;4225068;27;20074;-60
2021/10/31 07:05:55;;;;;;;12.68;10.68;;;16.60;91.90;;;;;;4224450;27;20112;-60
2021/10/31 07:08:18;;;;;;;11.85;10.55;;;16.60;92.00;;;;;;4224789;27;20051;-60
2021/10/31 07:10:41;;;;;;;13.68;10.15;;;16.60;92.10;;;;;;4224696;27;20611;-60
2021/10/31 07:13:03;;;;;;;14.23;10.30;;;16.60;92.50;;;;;;4224854;27;20550;-60
2021/10/31 07:15:25;;;;;;;10.13;8.88;;;16.60;92.60;;;;;;4207711;28;20150;-60
2021/10/31 07:17:48;;;;;;;12.23;9.63;;;16.50;92.60;;;;;;4207509;28;20059;-60
2021/10/31 07:20:13;;;;;;;12.02;9.15;;;16.50;92.50;;;;;;4215756;28;20493;-60
2021/10/31 07:22:35;;;;;;;10.10;9.10;;;16.50;92.40;;;;;;4224764;28;20066;-60
2021/10/31 07:25:01;;;;;;;14.00;10.20;;;16.50;92.30;;;;;;4223658;27;20043;-60
2021/10/31 07:27:23;;;;;;;11.23;9.90;;;16.50;92.20;;;;;;4224594;28;20055;-60
2021/10/31 07:29:45;;;;;;;10.38;9.25;;;16.40;91.90;;;;;;4224404;27;20698;-60
2021/10/31 07:32:08;;;;;;;12.88;9.05;;;16.50;91.80;;;;;;4224253;28;20055;-60
2021/10/31 07:34:30;;;;;;;11.45;8.85;;;16.40;91.70;;;;;;4222693;28;20132;-60
2021/10/31 07:36:53;;;;;;;13.35;9.15;;;16.40;91.90;;;;;;4224055;27;20065;-60
2021/10/31 07:39:15;;;;;;;10.65;9.38;;;16.40;92.00;;;;;;4223185;27;20051;-59
2021/10/31 07:41:38;;;;;;;10.07;9.10;;;16.30;91.90;;;;;;4223586;27;20047;-59
2021/10/31 07:44:03;;;;;;;10.48;9.23;;;16.30;92.10;;;;;;4224374;27;20074;-59
2021/10/31 07:46:25;;;;;;;10.73;8.98;;;16.30;91.90;;;;;;4223414;27;20051;-59
2021/10/31 07:48:47;;;;;;;9.95;9.05;;;16.30;92.00;;;;;;4212843;27;20056;-58
2021/10/31 07:51:10;;;;;;;11.13;8.98;;;16.30;91.70;;;;;;4223592;27;20124;-60
2021/10/31 07:53:38;;;;;;;10.40;8.43;;;16.30;91.80;;;;;;4224642;27;20391;-59
2021/10/31 07:56:00;;;;;;;9.77;8.75;;;16.30;91.80;;;;;;4224302;27;20044;-61
2021/10/31 07:58:25;;;;;;;9.43;8.63;;;16.30;92.20;;;;;;4223935;27;20776;-61
2021/10/31 08:00:48;;;;;;;9.93;8.57;;;16.30;92.10;;;;;;4223735;27;20044;-61
2021/10/31 08:03:10;;;;;;;9.23;8.38;;;16.30;91.80;;;;;;4224117;27;20075;-61
2021/10/31 08:05:34;;;;;;;9.45;8.50;;;16.30;91.80;;;;;;4224871;28;20127;-61
2021/10/31 08:07:57;;;;;;;9.30;8.40;;;16.30;91.80;;;;;;4224232;28;20047;-61
2021/10/31 08:10:20;;;;;;;10.43;8.50;;;16.30;91.80;;;;;;4223691;27;20044;-63
2021/10/31 08:12:42;;;;;;;8.93;8.07;;;16.20;91.60;;;;;;4224273;27;20129;-61
2021/10/31 08:15:07;;;;;;;8.95;8.05;;;16.20;91.70;;;;;;4224235;27;20077;-62
2021/10/31 08:17:29;;;;;;;8.65;7.85;;;16.20;91.60;;;;;;4223214;27;20413;-62
2021/10/31 08:19:50;;;;;;;9.10;8.23;;;16.20;92.20;;;;;;4224188;27;20451;-63
2021/10/31 08:22:13;;;;;;;9.02;8.05;;;16.20;92.00;;;;;;4224627;27;20417;-64
2021/10/31 08:24:35;;;;;;;9.70;8.15;;;16.20;91.90;;;;;;4224354;27;20048;-62
2021/10/31 08:26:58;;;;;;;8.55;7.63;;;16.20;91.70;;;;;;4223832;27;20058;-63
2021/10/31 08:29:22;;;;;;;8.98;7.95;;;16.10;91.60;;;;;;4221292;27;20048;-62
2021/10/31 08:31:49;;;;;;;9.50;8.57;;;16.10;91.60;;;;;;4227578;27;20054;-63
2021/10/31 08:34:13;;;;;;;9.57;8.68;;;16.10;91.30;;;;;;4226750;27;20056;-62
2021/10/31 08:36:36;;;;;;;11.80;8.68;;;16.20;91.70;;;;;;4227267;27;20044;-62
2021/10/31 08:38:58;;;;;;;10.98;9.27;;;16.50;91.70;;;;;;4226691;28;20047;-62
2021/10/31 08:41:22;;;;;;;10.25;9.18;;;17.10;90.80;;;;;;4227283;28;20055;-62
2021/10/31 08:43:44;;;;;;;10.20;9.20;;;17.80;89.50;;;;;;4227948;27;20078;-62
2021/10/31 08:46:06;;;;;;;10.95;9.85;;;18.50;86.60;;;;;;4227058;27;20044;-62
2021/10/31 08:48:30;;;;;;;11.35;9.85;;;19.20;83.70;;;;;;4227204;27;20051;-62
2021/10/31 08:50:52;;;;;;;9.80;8.93;;;19.90;79.50;;;;;;4225820;27;20047;-62
2021/10/31 08:53:18;;;;;;;10.07;9.05;;;20.70;76.00;;;;;;4226561;27;20071;-62
2021/10/31 08:55:40;;;;;;;10.00;9.02;;;21.30;72.90;;;;;;4227186;28;20485;-61
2021/10/31 08:58:05;;;;;;;9.85;8.90;;;21.70;70.30;;;;;;4226942;27;20558;-62
2021/10/31 09:00:27;;;;;;;9.23;8.52;;;22.10;68.20;;;;;;4226635;27;20051;-63
2021/10/31 09:02:49;;;;;;;8.38;7.65;;;22.20;67.10;;;;;;4229782;27;20040;-62
2021/10/31 09:05:13;;;;;;;9.38;8.13;;;22.20;66.60;;;;;;4229289;27;20058;-62
2021/10/31 09:07:35;;;;;;;9.93;8.95;;;22.10;66.70;;;;;;4210081;27;20126;-62
2021/10/31 09:09:59;;;;;;;9.52;8.45;;;22.00;67.20;;;;;;4216432;27;20155;-62
2021/10/31 09:12:21;;;;;;;9.18;8.38;;;21.80;67.80;;;;;;4212714;27;20036;-63
2021/10/31 09:14:43;;;;;;;8.93;8.13;;;21.50;68.50;;;;;;4209773;28;20056;-62
2021/10/31 09:17:06;;;;;;;9.68;8.77;;;21.30;69.50;;;;;;4209693;28;20660;-63
2021/10/31 09:19:28;;;;;;;9.57;8.68;;;21.10;70.80;;;;;;4209436;28;20051;-63
2021/10/31 09:21:51;;;;;;;11.13;7.70;;;20.90;72.00;;;;;;4209653;28;20474;-64
2021/10/31 09:24:14;;;;;;;8.43;7.53;;;20.70;72.60;;;;;;4209739;28;20044;-63
2021/10/31 09:26:36;;;;;;;7.93;7.32;;;20.50;73.60;;;;;;4209295;28;20498;-61
2021/10/31 09:28:59;;;;;;;8.50;7.80;;;20.30;74.20;;;;;;4195713;28;20144;-61
2021/10/31 09:31:21;;;;;;;7.85;7.25;;;20.30;75.10;;;;;;4209216;28;20548;-61
2021/10/31 09:33:43;;;;;;;7.25;6.55;;;20.30;74.90;;;;;;4209621;28;20126;-61
2021/10/31 09:36:06;;;;;;;9.07;7.72;;;20.40;75.10;;;;;;4209915;28;20490;-61
2021/10/31 09:38:31;;;;;;;7.72;7.07;;;20.50;74.80;;;;;;4226418;27;20098;-61
2021/10/31 09:40:55;;;;;;;6.75;6.25;;;20.50;74.10;;;;;;4219976;27;20035;-62
2021/10/31 09:43:17;;;;;;;7.07;6.28;;;20.60;73.50;;;;;;4224964;28;20051;-61
2021/10/31 09:45:39;;;;;;;8.80;5.88;;;20.60;73.40;;;;;;4226357;28;20079;-62
2021/10/31 09:48:04;;;;;;;6.22;5.82;;;20.60;73.50;;;;;;4226140;27;20522;-61
2021/10/31 09:50:30;;;;;;;6.70;6.18;;;20.50;73.40;;;;;;4225743;28;20480;-61
2021/10/31 09:52:52;;;;;;;6.18;5.68;;;20.50;74.20;;;;;;4226118;27;20101;-61
2021/10/31 09:55:16;;;;;;;6.65;6.05;;;20.40;74.70;;;;;;4225863;28;20044;-61
2021/10/31 09:57:38;;;;;;;6.97;6.18;;;20.40;74.90;;;;;;4225742;27;20052;-62
2021/10/31 10:00:04;;;;;;;6.63;6.03;;;20.40;74.80;;;;;;4225006;27;20048;-62
2021/10/31 10:02:45;;;;;;;5.97;5.38;;;20.40;74.80;;;;;;4208755;28;20056;-62
2021/10/31 10:05:17;;;;;;;6.82;5.47;;;20.30;75.00;;;;;;4208998;28;20097;-61
2021/10/31 10:07:39;;;;;;;5.72;5.20;;;20.20;75.40;;;;;;4207863;28;20448;-60
2021/10/31 10:10:01;;;;;;;6.00;5.40;;;20.20;75.90;;;;;;4220120;28;20047;-62
2021/10/31 10:12:28;;;;;;;6.85;5.00;;;20.20;76.00;;;;;;4225716;27;20043;-62
2021/10/31 10:14:57;;;;;;;5.97;5.30;;;20.30;75.70;;;;;;4224231;28;20497;-62
2021/10/31 10:17:19;;;;;;;5.95;5.25;;;20.30;75.50;;;;;;4225282;27;20105;-62
2021/10/31 10:19:47;;;;;;;5.55;4.82;;;20.30;75.40;;;;;;4230135;27;20051;-63
2021/10/31 10:22:11;;;;;;;5.65;4.63;;;20.30;75.60;;;;;;4223165;27;20039;-62
2021/10/31 10:24:35;;;;;;;5.03;4.53;;;20.20;76.10;;;;;;4225359;27;20074;-63
2021/10/31 10:27:01;;;;;;;5.30;4.78;;;20.20;76.30;;;;;;4225082;27;20050;-62
2021/10/31 10:29:26;;;;;;;5.30;4.80;;;20.20;76.40;;;;;;4219648;27;20048;-61
2021/10/31 10:31:50;;;;;;;7.13;4.63;;;20.20;76.30;;;;;;4218610;27;20050;-61
2021/10/31 10:34:14;;;;;;;5.38;4.88;;;20.20;76.70;;;;;;4225140;27;20070;-61
2021/10/31 10:36:42;;;;;;;7.55;4.63;;;20.10;76.90;;;;;;4225518;28;20043;-62
2021/10/31 10:39:08;;;;;;;5.32;4.53;;;20.10;76.50;;;;;;4225177;27;20489;-62
2021/10/31 10:41:45;;;;;;;4.45;4.15;;;20.10;76.80;;;;;;4225203;27;20150;-63
2021/10/31 10:44:28;;;;;;;4.97;4.50;;;20.10;77.10;;;;;;4224928;28;20051;-62
2021/10/31 10:46:53;;;;;;;7.07;4.63;;;20.10;76.70;;;;;;4225174;27;20512;-63
2021/10/31 10:49:17;;;;;;;4.90;4.40;;;20.00;76.80;;;;;;4223735;27;20044;-62
2021/10/31 10:51:39;;;;;;;5.93;4.35;;;20.00;76.50;;;;;;4224565;27;20047;-62
2021/10/31 10:54:12;;;;;;;7.90;4.30;;;20.00;77.40;;;;;;4219788;27;20046;-63
2021/10/31 10:56:34;;;;;;;4.55;4.15;;;19.90;77.50;;;;;;4224501;27;20404;-62
2021/10/31 10:58:56;;;;;;;4.55;4.15;;;19.90;77.80;;;;;;4224874;27;20140;-63
2021/10/31 11:01:19;;;;;;;4.65;4.25;;;19.80;77.90;;;;;;4224975;27;20069;-62
2021/10/31 11:03:41;;;;;;;5.03;4.60;;;19.80;77.50;;;;;;4224794;27;20070;-63
2021/10/31 11:06:07;;;;;;;6.55;4.35;;;19.80;78.10;;;;;;4225156;27;20040;-62
2021/10/31 11:08:29;;;;;;;5.07;4.68;;;19.70;78.60;;;;;;4224824;27;20035;-62
2021/10/31 11:10:58;;;;;;;5.10;4.60;;;19.70;78.90;;;;;;4224999;27;20047;-62
2021/10/31 11:13:22;;;;;;;4.30;4.00;;;19.80;78.50;;;;;;4207836;28;20068;-63
2021/10/31 11:15:45;;;;;;;6.25;4.75;;;19.90;78.70;;;;;;4208241;28;20054;-62
2021/10/31 11:18:10;;;;;;;4.72;4.10;;;20.00;77.60;;;;;;4207743;28;20052;-62
2021/10/31 11:20:35;;;;;;;5.40;4.88;;;20.10;77.80;;;;;;4205362;28;20040;-61
2021/10/31 11:23:01;;;;;;;4.63;4.22;;;20.20;77.60;;;;;;4195905;28;20101;-61
2021/10/31 11:25:25;;;;;;;4.97;4.47;;;20.30;77.80;;;;;;4206889;28;20513;-61
2021/10/31 11:27:50;;;;;;;5.20;4.72;;;20.30;77.10;;;;;;4207838;28;20063;-61
2021/10/31 11:30:13;;;;;;;6.60;4.53;;;20.30;77.60;;;;;;4207935;28;20067;-62
2021/10/31 11:32:37;;;;;;;5.72;4.68;;;20.30;77.50;;;;;;4207901;28;20109;-62
2021/10/31 11:35:02;;;;;;;4.43;4.05;;;20.30;77.00;;;;;;4207866;28;20139;-62
2021/10/31 11:37:27;;;;;;;4.90;4.32;;;20.20;77.80;;;;;;4207655;28;20052;-62
2021/10/31 11:39:53;;;;;;;4.68;4.20;;;20.20;77.90;;;;;;4207465;28;20131;-63
2021/10/31 11:42:17;;;;;;;6.38;3.95;;;20.10;77.90;;;;;;4207516;28;20070;-62
2021/10/31 11:45:03;;;;;;;4.65;4.25;;;20.00;78.30;;;;;;4206497;28;20040;-61
2021/10/31 11:47:29;;;;;;;4.80;4.32;;;20.00;78.50;;;;;;4192324;28;20127;-61
2021/10/31 11:50:02;;;;;;;4.07;3.78;;;19.90;79.40;;;;;;4207653;28;20074;-61
2021/10/31 11:52:53;;;;;;;4.13;3.75;;;19.70;78.90;;;;;;4222616;27;20082;-61
2021/10/31 11:55:49;;;;;;;5.25;4.07;;;19.60;79.80;;;;;;4211118;27;20043;-62
2021/10/31 11:58:51;;;;;;;3.92;3.50;;;19.50;80.30;;;;;;4207469;28;20044;-63
2021/10/31 12:01:17;;;;;;;3.40;3.20;;;19.40;81.00;;;;;;4214278;27;20078;-62
2021/10/31 12:03:43;;;;;;;3.50;3.30;;;19.40;81.80;;;;;;4224800;27;20055;-62
2021/10/31 12:06:39;;;;;;;3.83;3.63;;;19.40;82.10;;;;;;4226520;27;20123;-60
2021/10/31 12:09:04;;;;;;;4.18;3.83;;;19.40;81.60;;;;;;4225649;27;20062;-61
2021/10/31 12:12:01;;;;;;;3.80;3.55;;;19.50;82.30;;;;;;4225922;27;20085;-61
2021/10/31 12:14:58;;;;;;;4.10;3.70;;;19.70;80.20;;;;;;4227177;27;20043;-61
2021/10/31 12:17:21;;;;;;;3.65;3.35;;;19.80;80.00;;;;;;4215911;27;20105;-61
2021/10/31 12:19:47;;;;;;;4.30;3.78;;;19.90;79.00;;;;;;4227659;27;20043;-61
2021/10/31 12:22:10;;;;;;;4.10;3.00;;;19.90;79.80;;;;;;4227527;27;20051;-60
2021/10/31 12:24:38;;;;;;;3.65;3.33;;;19.90;79.70;;;;;;4209478;27;20493;-61